Time;durP1;ratioP1;P1;durP2;ratioP2;P2;SDS_P1;SDS_P2;PMS_P1;PMS_P2;Temp;Humidity;BMP_temperature;BMP_pressure;BME280_temperature;BME280_humidity;BME280_pressure;Samples;Min_cycle;Max_cycle;Signal;HPM_P1;HPM_P2
2023/01/26 00:01:28;;;;;;;11.30;9.50;;;;;;;4.43;61.42;102946.59;106890;1274;25485;-49
2023/01/26 00:03:56;;;;;;;13.10;10.70;;;;;;;4.44;61.29;102946.63;106057;1254;1002933;-49
2023/01/26 00:06:23;;;;;;;11.70;9.90;;;;;;;4.46;61.34;102946.35;107035;1272;25350;-50
2023/01/26 00:08:51;;;;;;;11.60;9.40;;;;;;;4.47;61.44;102947.23;106287;1269;1003441;-49
2023/01/26 00:11:25;;;;;;;19.00;12.10;;;;;;;4.48;61.22;102943.34;106788;1268;25312;-50
2023/01/26 00:13:53;;;;;;;22.60;13.90;;;;;;;4.49;61.26;102946.65;105767;1274;1003150;-50
2023/01/26 00:16:20;;;;;;;18.50;11.80;;;;;;;4.50;61.28;102942.54;106156;1273;1003425;-50
2023/01/26 00:18:47;;;;;;;16.30;10.60;;;;;;;4.47;60.87;102939.02;107002;1270;25376;-49
2023/01/26 00:21:19;;;;;;;16.50;11.30;;;;;;;4.44;61.00;102939.77;106164;1267;1003670;-50
2023/01/26 00:23:47;;;;;;;16.60;12.10;;;;;;;4.42;60.83;102939.52;107016;1267;26494;-50
2023/01/26 00:26:16;;;;;;;14.00;10.90;;;;;;;4.41;60.99;102936.36;105712;1268;1003759;-50
2023/01/26 00:28:43;;;;;;;14.70;11.00;;;;;;;4.40;61.21;102930.15;105889;1274;1003457;-50
2023/01/26 00:31:12;;;;;;;15.50;10.80;;;;;;;4.38;61.14;102930.05;106503;1272;22653;-50
2023/01/26 00:33:41;;;;;;;13.60;9.50;;;;;;;4.37;61.05;102927.63;106974;1272;25338;-49
2023/01/26 00:36:10;;;;;;;13.30;9.50;;;;;;;4.36;61.28;102929.31;106830;1269;22770;-49
2023/01/26 00:38:37;;;;;;;12.70;9.80;;;;;;;4.34;61.31;102925.81;106997;1271;22533;-52
2023/01/26 00:41:04;;;;;;;13.20;9.80;;;;;;;4.35;61.27;102921.35;106185;1271;1003185;-49
2023/01/26 00:43:31;;;;;;;11.20;9.50;;;;;;;4.32;61.29;102915.08;106997;1267;25599;-52
2023/01/26 00:45:58;;;;;;;11.10;9.10;;;;;;;4.35;61.44;102916.21;105885;1274;1015769;-49
2023/01/26 00:48:26;;;;;;;13.20;9.40;;;;;;;4.36;61.49;102914.35;106452;1275;25423;-51
2023/01/26 00:50:53;;;;;;;12.90;10.00;;;;;;;4.35;61.41;102913.29;106765;1274;22537;-52
2023/01/26 00:53:20;;;;;;;13.20;9.50;;;;;;;4.33;61.36;102914.77;107007;1272;25437;-51
2023/01/26 00:55:47;;;;;;;13.40;9.90;;;;;;;4.32;61.18;102915.58;106098;1266;1003342;-51
2023/01/26 00:58:14;;;;;;;10.30;8.80;;;;;;;4.32;61.17;102914.57;107111;1267;25305;-49
2023/01/26 22:59:46;;;;;;;20.40;13.60;;;;;;;3.21;75.25;102129.50;104679;1289;558076;-50
2023/01/26 23:02:13;;;;;;;18.30;13.00;;;;;;;4.14;71.40;102118.15;105406;1266;1003823;-50
2023/01/26 23:04:40;;;;;;;18.20;12.40;;;;;;;4.30;70.55;102112.89;105808;1280;26495;-51
2023/01/26 23:07:07;;;;;;;18.90;11.80;;;;;;;4.39;70.01;102114.33;105882;1282;22542;-50
2023/01/26 23:09:38;;;;;;;18.30;12.10;;;;;;;4.47;69.70;102119.16;105372;1280;1003079;-50
2023/01/26 23:12:06;;;;;;;16.10;11.10;;;;;;;4.54;69.32;102115.23;106122;1277;201725;-50
2023/01/26 23:14:33;;;;;;;16.20;10.50;;;;;;;4.61;68.96;102107.48;106267;1285;25513;-50
2023/01/26 23:17:00;;;;;;;20.30;11.70;;;;;;;4.66;68.60;102102.29;106384;1278;25440;-50
2023/01/26 23:19:28;;;;;;;17.60;11.60;;;;;;;4.71;68.24;102095.34;106348;1278;25518;-51
2023/01/26 23:21:56;;;;;;;19.90;11.90;;;;;;;4.74;67.99;102093.02;106405;1278;25370;-50
2023/01/26 23:24:23;;;;;;;23.60;12.00;;;;;;;4.76;67.75;102092.04;106051;1284;25519;-51
2023/01/26 23:26:50;;;;;;;17.00;11.00;;;;;;;4.79;67.51;102088.48;105959;1279;22809;-50
2023/01/26 23:29:17;;;;;;;20.50;11.60;;;;;;;4.80;67.15;102083.52;107124;1266;22520;-51
2023/01/26 23:31:44;;;;;;;18.10;10.90;;;;;;;4.81;66.92;102083.37;106079;1266;1003473;-50
2023/01/26 23:34:11;;;;;;;15.20;10.50;;;;;;;4.80;66.70;102081.13;106816;1266;23730;-50
2023/01/26 23:36:38;;;;;;;14.50;10.80;;;;;;;4.79;66.59;102080.59;106226;1266;1003602;-50
2023/01/26 23:39:05;;;;;;;15.00;9.80;;;;;;;4.78;66.45;102079.17;107295;1266;23217;-50
2023/01/26 23:41:33;;;;;;;16.30;11.20;;;;;;;4.76;66.17;102077.94;107199;1267;25441;-50
2023/01/26 23:44:00;;;;;;;17.20;10.30;;;;;;;4.76;66.08;102074.83;106457;1271;1003784;-50
2023/01/26 23:46:27;;;;;;;14.10;10.10;;;;;;;4.78;66.14;102075.40;107091;1270;25469;-50
2023/01/26 23:48:55;;;;;;;14.00;10.30;;;;;;;4.81;65.97;102072.54;106356;1272;1003023;-50
2023/01/26 23:51:22;;;;;;;14.60;10.40;;;;;;;4.81;65.77;102077.00;107173;1266;25333;-50
2023/01/26 23:53:49;;;;;;;16.00;10.10;;;;;;;4.80;65.89;102075.09;107162;1266;24200;-51
2023/01/26 23:56:16;;;;;;;14.40;10.00;;;;;;;4.82;65.90;102076.70;107093;1274;25331;-50
2023/01/26 23:58:44;;;;;;;13.50;9.60;;;;;;;4.82;65.95;102077.04;107014;1252;25473;-50
